sensor_id;sensor_type;location;lat;lon;timestamp;P1;durP1;ratioP1;P2;durP2;ratioP2
73251;SDS011;61473;50.834;4.552;2022-10-04T00:01:10;2.58;;;1.70;;
73251;SDS011;61473;50.834;4.552;2022-10-04T00:06:25;2.38;;;1.92;;
73251;SDS011;61473;50.834;4.552;2022-10-04T00:08:56;1.80;;;1.48;;
73251;SDS011;61473;50.834;4.552;2022-10-04T00:11:26;1.67;;;1.50;;
73251;SDS011;61473;50.834;4.552;2022-10-04T00:13:56;2.75;;;1.38;;
73251;SDS011;61473;50.834;4.552;2022-10-04T00:16:33;1.70;;;1.45;;
73251;SDS011;61473;50.834;4.552;2022-10-04T00:40:27;3.13;;;1.73;;
73251;SDS011;61473;50.834;4.552;2022-10-04T00:43:12;2.35;;;1.50;;
73251;SDS011;61473;50.834;4.552;2022-10-04T00:45:45;3.00;;;1.77;;
73251;SDS011;61473;50.834;4.552;2022-10-04T00:48:23;2.45;;;1.58;;
73251;SDS011;61473;50.834;4.552;2022-10-04T01:01:22;2.33;;;1.95;;
73251;SDS011;61473;50.834;4.552;2022-10-04T01:03:49;3.47;;;1.83;;
73251;SDS011;61473;50.834;4.552;2022-10-04T01:06:18;2.30;;;2.13;;
73251;SDS011;61473;50.834;4.552;2022-10-04T01:08:52;2.38;;;2.05;;
73251;SDS011;61473;50.834;4.552;2022-10-04T01:11:24;3.08;;;1.98;;
73251;SDS011;61473;50.834;4.552;2022-10-04T01:13:55;1.52;;;1.42;;
73251;SDS011;61473;50.834;4.552;2022-10-04T01:16:28;1.85;;;1.60;;
73251;SDS011;61473;50.834;4.552;2022-10-04T01:21:46;2.78;;;1.52;;
73251;SDS011;61473;50.834;4.552;2022-10-04T01:24:22;2.65;;;1.83;;
73251;SDS011;61473;50.834;4.552;2022-10-04T01:26:48;1.48;;;1.38;;
73251;SDS011;61473;50.834;4.552;2022-10-04T01:29:18;1.42;;;1.30;;
73251;SDS011;61473;50.834;4.552;2022-10-04T01:31:50;1.40;;;1.30;;
73251;SDS011;61473;50.834;4.552;2022-10-04T01:34:18;2.35;;;1.70;;
73251;SDS011;61473;50.834;4.552;2022-10-04T01:36:47;1.70;;;1.60;;
73251;SDS011;61473;50.834;4.552;2022-10-04T01:39:15;2.20;;;1.65;;
73251;SDS011;61473;50.834;4.552;2022-10-04T01:42:03;1.80;;;1.60;;
73251;SDS011;61473;50.834;4.552;2022-10-04T01:44:37;2.92;;;2.00;;
73251;SDS011;61473;50.834;4.552;2022-10-04T01:47:14;2.00;;;1.75;;
73251;SDS011;61473;50.834;4.552;2022-10-04T01:49:48;2.08;;;1.80;;
73251;SDS011;61473;50.834;4.552;2022-10-04T01:52:17;1.95;;;1.80;;
73251;SDS011;61473;50.834;4.552;2022-10-04T01:54:58;1.65;;;1.55;;
73251;SDS011;61473;50.834;4.552;2022-10-04T01:57:40;1.85;;;1.65;;
73251;SDS011;61473;50.834;4.552;2022-10-04T02:00:12;2.47;;;2.00;;
73251;SDS011;61473;50.834;4.552;2022-10-04T02:05:12;1.55;;;1.45;;
73251;SDS011;61473;50.834;4.552;2022-10-04T02:07:42;4.05;;;1.85;;
73251;SDS011;61473;50.834;4.552;2022-10-04T02:10:10;3.03;;;1.85;;
73251;SDS011;61473;50.834;4.552;2022-10-04T02:12:46;1.75;;;1.65;;
73251;SDS011;61473;50.834;4.552;2022-10-04T02:15:15;3.33;;;1.67;;
73251;SDS011;61473;50.834;4.552;2022-10-04T02:17:44;2.00;;;1.70;;
73251;SDS011;61473;50.834;4.552;2022-10-04T02:20:15;1.65;;;1.55;;
73251;SDS011;61473;50.834;4.552;2022-10-04T02:22:44;2.35;;;1.77;;
73251;SDS011;61473;50.834;4.552;2022-10-04T02:25:13;2.10;;;1.90;;
73251;SDS011;61473;50.834;4.552;2022-10-04T02:27:42;3.03;;;1.48;;
73251;SDS011;61473;50.834;4.552;2022-10-04T02:30:09;2.63;;;2.38;;
73251;SDS011;61473;50.834;4.552;2022-10-04T02:32:37;2.92;;;1.50;;
73251;SDS011;61473;50.834;4.552;2022-10-04T02:35:30;1.90;;;1.35;;
73251;SDS011;61473;50.834;4.552;2022-10-04T02:38:08;2.00;;;1.80;;
73251;SDS011;61473;50.834;4.552;2022-10-04T02:41:23;2.22;;;2.03;;
73251;SDS011;61473;50.834;4.552;2022-10-04T02:43:51;2.08;;;1.85;;
73251;SDS011;61473;50.834;4.552;2022-10-04T02:49:04;2.47;;;1.55;;
73251;SDS011;61473;50.834;4.552;2022-10-04T02:51:39;2.75;;;1.77;;
73251;SDS011;61473;50.834;4.552;2022-10-04T02:56:51;3.88;;;2.30;;
73251;SDS011;61473;50.834;4.552;2022-10-04T02:59:18;1.70;;;1.60;;
73251;SDS011;61473;50.834;4.552;2022-10-04T03:01:56;3.25;;;1.90;;
73251;SDS011;61473;50.834;4.552;2022-10-04T03:04:25;2.38;;;1.65;;
73251;SDS011;61473;50.834;4.552;2022-10-04T03:06:52;1.90;;;1.65;;
73251;SDS011;61473;50.834;4.552;2022-10-04T03:09:22;2.47;;;1.90;;
73251;SDS011;61473;50.834;4.552;2022-10-04T03:11:48;2.63;;;2.10;;
73251;SDS011;61473;50.834;4.552;2022-10-04T03:14:17;1.98;;;1.70;;
73251;SDS011;61473;50.834;4.552;2022-10-04T03:16:46;2.95;;;2.42;;
73251;SDS011;61473;50.834;4.552;2022-10-04T03:19:15;2.65;;;1.75;;
73251;SDS011;61473;50.834;4.552;2022-10-04T03:21:43;2.38;;;1.67;;
73251;SDS011;61473;50.834;4.552;2022-10-04T03:24:19;2.03;;;1.83;;
73251;SDS011;61473;50.834;4.552;2022-10-04T03:26:50;1.92;;;1.80;;
73251;SDS011;61473;50.834;4.552;2022-10-04T03:29:18;1.95;;;1.60;;
73251;SDS011;61473;50.834;4.552;2022-10-04T03:31:48;1.52;;;1.42;;
73251;SDS011;61473;50.834;4.552;2022-10-04T03:34:20;2.10;;;1.88;;
73251;SDS011;61473;50.834;4.552;2022-10-04T03:36:48;1.70;;;1.60;;
73251;SDS011;61473;50.834;4.552;2022-10-04T03:39:18;2.08;;;1.65;;
73251;SDS011;61473;50.834;4.552;2022-10-04T03:41:48;2.65;;;2.15;;
73251;SDS011;61473;50.834;4.552;2022-10-04T03:44:14;2.17;;;1.98;;
73251;SDS011;61473;50.834;4.552;2022-10-04T03:46:43;2.30;;;1.90;;
73251;SDS011;61473;50.834;4.552;2022-10-04T03:49:11;2.08;;;1.60;;
73251;SDS011;61473;50.834;4.552;2022-10-04T03:51:47;1.77;;;1.67;;
73251;SDS011;61473;50.834;4.552;2022-10-04T03:54:20;1.83;;;1.67;;
73251;SDS011;61473;50.834;4.552;2022-10-04T03:59:16;2.50;;;1.90;;
73251;SDS011;61473;50.834;4.552;2022-10-04T04:01:46;3.22;;;1.70;;
73251;SDS011;61473;50.834;4.552;2022-10-04T04:07:16;1.98;;;1.60;;
73251;SDS011;61473;50.834;4.552;2022-10-04T04:09:51;2.47;;;1.83;;
73251;SDS011;61473;50.834;4.552;2022-10-04T04:12:30;2.33;;;1.80;;
73251;SDS011;61473;50.834;4.552;2022-10-04T04:14:59;2.95;;;2.20;;
73251;SDS011;61473;50.834;4.552;2022-10-04T04:20:00;2.63;;;1.92;;
73251;SDS011;61473;50.834;4.552;2022-10-04T04:22:31;2.13;;;1.92;;
73251;SDS011;61473;50.834;4.552;2022-10-04T04:24:58;1.77;;;1.67;;
73251;SDS011;61473;50.834;4.552;2022-10-04T04:27:26;1.80;;;1.67;;
73251;SDS011;61473;50.834;4.552;2022-10-04T04:29:56;3.50;;;1.98;;
73251;SDS011;61473;50.834;4.552;2022-10-04T04:32:25;2.20;;;2.00;;
73251;SDS011;61473;50.834;4.552;2022-10-04T04:34:58;4.30;;;1.92;;
73251;SDS011;61473;50.834;4.552;2022-10-04T04:37:31;2.33;;;1.97;;
73251;SDS011;61473;50.834;4.552;2022-10-04T04:39:58;1.88;;;1.65;;
73251;SDS011;61473;50.834;4.552;2022-10-04T04:42:42;2.05;;;1.80;;
73251;SDS011;61473;50.834;4.552;2022-10-04T04:45:16;3.15;;;2.13;;
73251;SDS011;61473;50.834;4.552;2022-10-04T04:47:47;3.15;;;2.22;;
73251;SDS011;61473;50.834;4.552;2022-10-04T04:52:43;2.60;;;1.95;;
73251;SDS011;61473;50.834;4.552;2022-10-04T04:55:26;2.25;;;1.85;;
73251;SDS011;61473;50.834;4.552;2022-10-04T04:58:02;1.70;;;1.60;;
73251;SDS011;61473;50.834;4.552;2022-10-04T05:00:30;3.05;;;2.42;;
73251;SDS011;61473;50.834;4.552;2022-10-04T05:02:59;2.33;;;2.00;;
73251;SDS011;61473;50.834;4.552;2022-10-04T05:05:27;2.63;;;2.10;;
73251;SDS011;61473;50.834;4.552;2022-10-04T05:08:09;3.08;;;2.00;;
73251;SDS011;61473;50.834;4.552;2022-10-04T05:11:21;3.45;;;1.67;;
73251;SDS011;61473;50.834;4.552;2022-10-04T05:16:08;2.83;;;2.35;;
73251;SDS011;61473;50.834;4.552;2022-10-04T05:18:38;2.72;;;1.75;;
73251;SDS011;61473;50.834;4.552;2022-10-04T05:21:09;3.25;;;2.00;;
73251;SDS011;61473;50.834;4.552;2022-10-04T05:23:41;5.20;;;2.30;;
73251;SDS011;61473;50.834;4.552;2022-10-04T05:26:10;13.38;;;4.00;;
73251;SDS011;61473;50.834;4.552;2022-10-04T05:28:38;14.88;;;3.60;;
73251;SDS011;61473;50.834;4.552;2022-10-04T05:43:55;21.80;;;5.00;;
73251;SDS011;61473;50.834;4.552;2022-10-04T05:49:05;26.33;;;5.60;;
73251;SDS011;61473;50.834;4.552;2022-10-04T05:51:55;19.38;;;5.05;;
73251;SDS011;61473;50.834;4.552;2022-10-04T05:54:25;11.77;;;4.30;;
73251;SDS011;61473;50.834;4.552;2022-10-04T05:59:37;18.27;;;5.50;;
73251;SDS011;61473;50.834;4.552;2022-10-04T06:07:18;11.10;;;4.60;;
73251;SDS011;61473;50.834;4.552;2022-10-04T06:13:14;9.02;;;3.83;;
73251;SDS011;61473;50.834;4.552;2022-10-04T06:21:36;10.63;;;4.07;;
73251;SDS011;61473;50.834;4.552;2022-10-04T06:24:26;8.30;;;3.72;;
73251;SDS011;61473;50.834;4.552;2022-10-04T06:27:01;10.10;;;3.65;;
73251;SDS011;61473;50.834;4.552;2022-10-04T06:29:39;9.77;;;3.67;;
73251;SDS011;61473;50.834;4.552;2022-10-04T06:51:41;8.60;;;4.22;;
73251;SDS011;61473;50.834;4.552;2022-10-04T07:02:29;9.38;;;3.58;;
73251;SDS011;61473;50.834;4.552;2022-10-04T07:05:01;5.63;;;2.83;;
73251;SDS011;61473;50.834;4.552;2022-10-04T07:07:37;7.93;;;3.53;;
73251;SDS011;61473;50.834;4.552;2022-10-04T07:12:47;7.70;;;3.17;;
73251;SDS011;61473;50.834;4.552;2022-10-04T07:15:53;14.77;;;3.42;;
73251;SDS011;61473;50.834;4.552;2022-10-04T07:18:31;5.78;;;3.08;;
73251;SDS011;61473;50.834;4.552;2022-10-04T07:21:02;9.25;;;3.53;;
73251;SDS011;61473;50.834;4.552;2022-10-04T07:23:55;5.88;;;3.00;;
73251;SDS011;61473;50.834;4.552;2022-10-04T07:26:24;8.88;;;3.75;;
73251;SDS011;61473;50.834;4.552;2022-10-04T07:29:02;6.88;;;2.70;;
73251;SDS011;61473;50.834;4.552;2022-10-04T07:31:51;7.40;;;2.72;;
73251;SDS011;61473;50.834;4.552;2022-10-04T07:35:19;6.10;;;2.97;;
73251;SDS011;61473;50.834;4.552;2022-10-04T07:37:18;8.27;;;3.72;;
73251;SDS011;61473;50.834;4.552;2022-10-04T07:39:48;4.07;;;2.58;;
73251;SDS011;61473;50.834;4.552;2022-10-04T07:42:38;3.22;;;2.33;;
73251;SDS011;61473;50.834;4.552;2022-10-04T07:53:25;4.82;;;2.40;;
73251;SDS011;61473;50.834;4.552;2022-10-04T07:56:03;8.20;;;2.65;;
73251;SDS011;61473;50.834;4.552;2022-10-04T08:07:00;3.08;;;2.03;;
73251;SDS011;61473;50.834;4.552;2022-10-04T08:17:40;7.00;;;2.15;;
73251;SDS011;61473;50.834;4.552;2022-10-04T08:34:51;4.05;;;2.50;;
73251;SDS011;61473;50.834;4.552;2022-10-04T08:37:32;2.28;;;1.83;;
73251;SDS011;61473;50.834;4.552;2022-10-04T08:40:33;3.22;;;2.20;;
73251;SDS011;61473;50.834;4.552;2022-10-04T08:48:47;2.97;;;2.30;;
73251;SDS011;61473;50.834;4.552;2022-10-04T09:17:00;11.95;;;4.53;;
73251;SDS011;61473;50.834;4.552;2022-10-04T09:19:41;6.80;;;3.42;;
73251;SDS011;61473;50.834;4.552;2022-10-04T09:41:48;5.47;;;2.92;;
73251;SDS011;61473;50.834;4.552;2022-10-04T09:52:45;5.68;;;2.90;;
73251;SDS011;61473;50.834;4.552;2022-10-04T10:00:59;9.48;;;2.95;;
73251;SDS011;61473;50.834;4.552;2022-10-04T10:06:28;5.65;;;2.15;;
73251;SDS011;61473;50.834;4.552;2022-10-04T10:09:23;9.23;;;3.22;;
73251;SDS011;61473;50.834;4.552;2022-10-04T10:26:32;6.53;;;2.83;;
73251;SDS011;61473;50.834;4.552;2022-10-04T10:29:10;5.53;;;2.58;;
73251;SDS011;61473;50.834;4.552;2022-10-04T10:34:59;7.95;;;2.72;;
73251;SDS011;61473;50.834;4.552;2022-10-04T10:38:06;14.90;;;3.30;;
73251;SDS011;61473;50.834;4.552;2022-10-04T10:49:30;10.68;;;2.10;;
73251;SDS011;61473;50.834;4.552;2022-10-04T10:55:14;4.72;;;2.20;;
73251;SDS011;61473;50.834;4.552;2022-10-04T11:09:27;7.32;;;2.10;;
73251;SDS011;61473;50.834;4.552;2022-10-04T11:18:17;5.97;;;2.38;;
73251;SDS011;61473;50.834;4.552;2022-10-04T11:26:55;6.43;;;1.83;;
73251;SDS011;61473;50.834;4.552;2022-10-04T11:54:26;3.83;;;1.67;;
73251;SDS011;61473;50.834;4.552;2022-10-04T12:00:14;2.90;;;1.85;;
73251;SDS011;61473;50.834;4.552;2022-10-04T12:08:30;4.57;;;1.80;;
73251;SDS011;61473;50.834;4.552;2022-10-04T12:17:24;5.70;;;2.05;;
73251;SDS011;61473;50.834;4.552;2022-10-04T12:23:24;7.68;;;1.98;;
73251;SDS011;61473;50.834;4.552;2022-10-04T12:29:03;3.97;;;1.70;;
73251;SDS011;61473;50.834;4.552;2022-10-04T12:39:57;4.60;;;1.63;;
73251;SDS011;61473;50.834;4.552;2022-10-04T13:01:29;2.70;;;1.55;;
73251;SDS011;61473;50.834;4.552;2022-10-04T13:04:09;2.25;;;1.90;;
73251;SDS011;61473;50.834;4.552;2022-10-04T13:06:50;6.00;;;2.13;;
73251;SDS011;61473;50.834;4.552;2022-10-04T13:12:16;2.08;;;1.58;;
73251;SDS011;61473;50.834;4.552;2022-10-04T13:17:31;3.45;;;1.70;;
73251;SDS011;61473;50.834;4.552;2022-10-04T13:20:11;1.90;;;1.30;;
73251;SDS011;61473;50.834;4.552;2022-10-04T13:22:45;2.28;;;1.63;;
73251;SDS011;61473;50.834;4.552;2022-10-04T13:27:59;3.50;;;2.17;;
73251;SDS011;61473;50.834;4.552;2022-10-04T13:38:38;3.92;;;1.85;;
73251;SDS011;61473;50.834;4.552;2022-10-04T13:46:35;4.45;;;1.80;;
73251;SDS011;61473;50.834;4.552;2022-10-04T14:08:50;4.05;;;1.80;;
73251;SDS011;61473;50.834;4.552;2022-10-04T14:39:08;6.07;;;2.33;;
73251;SDS011;61473;50.834;4.552;2022-10-04T15:01:14;4.75;;;1.40;;
73251;SDS011;61473;50.834;4.552;2022-10-04T15:03:53;2.85;;;2.05;;
73251;SDS011;61473;50.834;4.552;2022-10-04T15:06:34;4.25;;;2.15;;
73251;SDS011;61473;50.834;4.552;2022-10-04T15:12:16;7.78;;;2.08;;
73251;SDS011;61473;50.834;4.552;2022-10-04T15:17:37;2.55;;;1.63;;
73251;SDS011;61473;50.834;4.552;2022-10-04T15:20:16;4.03;;;2.20;;
73251;SDS011;61473;50.834;4.552;2022-10-04T15:22:53;4.90;;;2.45;;
73251;SDS011;61473;50.834;4.552;2022-10-04T15:25:44;5.30;;;1.67;;
73251;SDS011;61473;50.834;4.552;2022-10-04T15:31:39;3.22;;;2.00;;
73251;SDS011;61473;50.834;4.552;2022-10-04T15:34:30;4.30;;;1.98;;
73251;SDS011;61473;50.834;4.552;2022-10-04T15:39:55;5.57;;;2.20;;
73251;SDS011;61473;50.834;4.552;2022-10-04T16:07:59;3.28;;;1.98;;
73251;SDS011;61473;50.834;4.552;2022-10-04T16:10:49;3.72;;;1.92;;
73251;SDS011;61473;50.834;4.552;2022-10-04T16:21:30;3.53;;;2.10;;
73251;SDS011;61473;50.834;4.552;2022-10-04T16:34:58;2.95;;;1.88;;
73251;SDS011;61473;50.834;4.552;2022-10-04T16:37:34;6.15;;;1.88;;
73251;SDS011;61473;50.834;4.552;2022-10-04T17:04:27;9.97;;;1.93;;
73251;SDS011;61473;50.834;4.552;2022-10-04T17:12:55;7.18;;;3.97;;
73251;SDS011;61473;50.834;4.552;2022-10-04T17:21:22;24.90;;;10.27;;
73251;SDS011;61473;50.834;4.552;2022-10-04T17:24:15;30.02;;;10.20;;
73251;SDS011;61473;50.834;4.552;2022-10-04T17:27:42;43.30;;;11.02;;
73251;SDS011;61473;50.834;4.552;2022-10-04T17:38:50;15.27;;;6.68;;
73251;SDS011;61473;50.834;4.552;2022-10-04T17:41:31;11.48;;;5.53;;
73251;SDS011;61473;50.834;4.552;2022-10-04T17:44:20;9.68;;;4.95;;
73251;SDS011;61473;50.834;4.552;2022-10-04T17:47:19;8.38;;;4.88;;
73251;SDS011;61473;50.834;4.552;2022-10-04T17:50:27;6.70;;;3.92;;
73251;SDS011;61473;50.834;4.552;2022-10-04T17:53:22;9.85;;;4.38;;
73251;SDS011;61473;50.834;4.552;2022-10-04T17:56:11;11.18;;;5.53;;
73251;SDS011;61473;50.834;4.552;2022-10-04T18:01:25;8.48;;;4.30;;
73251;SDS011;61473;50.834;4.552;2022-10-04T18:04:06;10.18;;;4.82;;
73251;SDS011;61473;50.834;4.552;2022-10-04T18:06:40;11.70;;;4.38;;
73251;SDS011;61473;50.834;4.552;2022-10-04T18:11:54;9.85;;;4.30;;
73251;SDS011;61473;50.834;4.552;2022-10-04T18:16:54;11.38;;;4.78;;
73251;SDS011;61473;50.834;4.552;2022-10-04T18:22:41;5.53;;;4.05;;
73251;SDS011;61473;50.834;4.552;2022-10-04T18:25:17;9.02;;;3.45;;
73251;SDS011;61473;50.834;4.552;2022-10-04T18:28:31;7.65;;;3.67;;
73251;SDS011;61473;50.834;4.552;2022-10-04T18:30:32;8.15;;;4.05;;
73251;SDS011;61473;50.834;4.552;2022-10-04T18:32:58;27.85;;;4.60;;
73251;SDS011;61473;50.834;4.552;2022-10-04T18:37:53;12.25;;;4.03;;
73251;SDS011;61473;50.834;4.552;2022-10-04T18:40:32;8.50;;;3.38;;
73251;SDS011;61473;50.834;4.552;2022-10-04T18:43:07;5.97;;;3.17;;
73251;SDS011;61473;50.834;4.552;2022-10-04T18:46:02;6.93;;;2.80;;
73251;SDS011;61473;50.834;4.552;2022-10-04T18:48:59;8.98;;;3.38;;
73251;SDS011;61473;50.834;4.552;2022-10-04T18:57:16;10.20;;;3.10;;
73251;SDS011;61473;50.834;4.552;2022-10-04T19:02:39;4.82;;;3.03;;
73251;SDS011;61473;50.834;4.552;2022-10-04T19:10:38;6.05;;;2.50;;
73251;SDS011;61473;50.834;4.552;2022-10-04T19:16:17;6.53;;;3.60;;
73251;SDS011;61473;50.834;4.552;2022-10-04T19:27:21;7.30;;;2.80;;
73251;SDS011;61473;50.834;4.552;2022-10-04T19:30:01;4.18;;;2.47;;
73251;SDS011;61473;50.834;4.552;2022-10-04T19:32:43;7.68;;;3.22;;
73251;SDS011;61473;50.834;4.552;2022-10-04T19:38:13;5.28;;;2.60;;
73251;SDS011;61473;50.834;4.552;2022-10-04T19:43:56;12.98;;;2.40;;
73251;SDS011;61473;50.834;4.552;2022-10-04T19:54:41;5.40;;;3.75;;
73251;SDS011;61473;50.834;4.552;2022-10-04T19:57:10;3.53;;;2.65;;
73251;SDS011;61473;50.834;4.552;2022-10-04T19:59:39;6.03;;;2.65;;
73251;SDS011;61473;50.834;4.552;2022-10-04T20:02:09;5.88;;;2.15;;
73251;SDS011;61473;50.834;4.552;2022-10-04T20:04:36;3.88;;;2.70;;
73251;SDS011;61473;50.834;4.552;2022-10-04T20:07:24;4.70;;;2.22;;
73251;SDS011;61473;50.834;4.552;2022-10-04T20:12:39;8.95;;;3.25;;
73251;SDS011;61473;50.834;4.552;2022-10-04T20:17:41;4.05;;;2.15;;
73251;SDS011;61473;50.834;4.552;2022-10-04T20:20:09;9.20;;;3.05;;
73251;SDS011;61473;50.834;4.552;2022-10-04T20:28:08;7.53;;;2.40;;
73251;SDS011;61473;50.834;4.552;2022-10-04T20:30:52;5.97;;;2.10;;
73251;SDS011;61473;50.834;4.552;2022-10-04T20:36:07;8.30;;;2.38;;
73251;SDS011;61473;50.834;4.552;2022-10-04T20:38:53;4.30;;;2.17;;
73251;SDS011;61473;50.834;4.552;2022-10-04T20:43:55;14.43;;;2.90;;
73251;SDS011;61473;50.834;4.552;2022-10-04T20:46:21;6.50;;;2.30;;
73251;SDS011;61473;50.834;4.552;2022-10-04T20:48:49;7.55;;;2.45;;
73251;SDS011;61473;50.834;4.552;2022-10-04T20:51:17;4.10;;;2.30;;
73251;SDS011;61473;50.834;4.552;2022-10-04T20:53:44;9.07;;;3.15;;
73251;SDS011;61473;50.834;4.552;2022-10-04T20:56:18;8.93;;;2.20;;
73251;SDS011;61473;50.834;4.552;2022-10-04T20:58:57;7.18;;;2.92;;
73251;SDS011;61473;50.834;4.552;2022-10-04T21:04:21;5.90;;;2.45;;
73251;SDS011;61473;50.834;4.552;2022-10-04T21:06:55;3.58;;;2.42;;
73251;SDS011;61473;50.834;4.552;2022-10-04T21:09:23;10.15;;;4.10;;
73251;SDS011;61473;50.834;4.552;2022-10-04T21:11:50;4.30;;;2.70;;
73251;SDS011;61473;50.834;4.552;2022-10-04T21:16:49;5.22;;;2.75;;
73251;SDS011;61473;50.834;4.552;2022-10-04T21:22:04;4.10;;;2.03;;
73251;SDS011;61473;50.834;4.552;2022-10-04T21:27:05;8.55;;;2.10;;
73251;SDS011;61473;50.834;4.552;2022-10-04T21:29:34;4.15;;;2.08;;
73251;SDS011;61473;50.834;4.552;2022-10-04T21:32:01;5.13;;;2.47;;
73251;SDS011;61473;50.834;4.552;2022-10-04T21:34:27;3.47;;;2.70;;
73251;SDS011;61473;50.834;4.552;2022-10-04T21:36:53;4.88;;;2.35;;
73251;SDS011;61473;50.834;4.552;2022-10-04T21:39:18;3.45;;;2.20;;
73251;SDS011;61473;50.834;4.552;2022-10-04T21:41:44;3.28;;;1.83;;
73251;SDS011;61473;50.834;4.552;2022-10-04T21:44:10;3.63;;;2.50;;
73251;SDS011;61473;50.834;4.552;2022-10-04T21:46:35;3.83;;;2.33;;
73251;SDS011;61473;50.834;4.552;2022-10-04T21:49:02;9.00;;;2.30;;
73251;SDS011;61473;50.834;4.552;2022-10-04T21:51:28;2.72;;;1.90;;
73251;SDS011;61473;50.834;4.552;2022-10-04T21:54:01;2.55;;;2.08;;
73251;SDS011;61473;50.834;4.552;2022-10-04T21:56:30;1.80;;;1.70;;
73251;SDS011;61473;50.834;4.552;2022-10-04T21:58:56;3.03;;;2.38;;
73251;SDS011;61473;50.834;4.552;2022-10-04T22:04:09;5.57;;;2.00;;
73251;SDS011;61473;50.834;4.552;2022-10-04T22:06:35;3.00;;;2.05;;
73251;SDS011;61473;50.834;4.552;2022-10-04T22:09:01;2.35;;;2.10;;
73251;SDS011;61473;50.834;4.552;2022-10-04T22:11:27;4.70;;;2.28;;
73251;SDS011;61473;50.834;4.552;2022-10-04T22:13:52;3.28;;;2.63;;
73251;SDS011;61473;50.834;4.552;2022-10-04T22:16:18;3.20;;;1.90;;
73251;SDS011;61473;50.834;4.552;2022-10-04T22:18:45;3.35;;;2.30;;
73251;SDS011;61473;50.834;4.552;2022-10-04T22:21:10;4.05;;;2.25;;
73251;SDS011;61473;50.834;4.552;2022-10-04T22:23:37;2.22;;;1.88;;
73251;SDS011;61473;50.834;4.552;2022-10-04T22:26:25;3.00;;;2.10;;
73251;SDS011;61473;50.834;4.552;2022-10-04T22:28:53;3.10;;;2.28;;
73251;SDS011;61473;50.834;4.552;2022-10-04T22:31:21;3.63;;;2.20;;
73251;SDS011;61473;50.834;4.552;2022-10-04T22:33:51;2.88;;;2.10;;
73251;SDS011;61473;50.834;4.552;2022-10-04T22:36:25;4.55;;;2.03;;
73251;SDS011;61473;50.834;4.552;2022-10-04T22:41:37;2.83;;;2.10;;
73251;SDS011;61473;50.834;4.552;2022-10-04T22:46:40;3.05;;;1.60;;
73251;SDS011;61473;50.834;4.552;2022-10-04T22:49:15;2.58;;;1.70;;
73251;SDS011;61473;50.834;4.552;2022-10-04T22:51:42;3.00;;;2.15;;
73251;SDS011;61473;50.834;4.552;2022-10-04T22:54:12;2.38;;;2.10;;
73251;SDS011;61473;50.834;4.552;2022-10-04T22:56:40;4.65;;;2.47;;
73251;SDS011;61473;50.834;4.552;2022-10-04T22:59:13;2.03;;;1.85;;
73251;SDS011;61473;50.834;4.552;2022-10-04T23:01:41;2.00;;;1.77;;
73251;SDS011;61473;50.834;4.552;2022-10-04T23:04:20;2.53;;;2.00;;
73251;SDS011;61473;50.834;4.552;2022-10-04T23:06:48;2.33;;;1.90;;
73251;SDS011;61473;50.834;4.552;2022-10-04T23:09:15;1.90;;;1.70;;
73251;SDS011;61473;50.834;4.552;2022-10-04T23:11:41;1.95;;;1.75;;
73251;SDS011;61473;50.834;4.552;2022-10-04T23:14:07;2.05;;;1.90;;
73251;SDS011;61473;50.834;4.552;2022-10-04T23:16:33;5.10;;;2.35;;
73251;SDS011;61473;50.834;4.552;2022-10-04T23:19:07;3.78;;;2.28;;
73251;SDS011;61473;50.834;4.552;2022-10-04T23:21:33;2.85;;;2.22;;
73251;SDS011;61473;50.834;4.552;2022-10-04T23:24:23;1.35;;;1.25;;
73251;SDS011;61473;50.834;4.552;2022-10-04T23:26:51;2.60;;;1.92;;
73251;SDS011;61473;50.834;4.552;2022-10-04T23:29:20;3.92;;;2.47;;
73251;SDS011;61473;50.834;4.552;2022-10-04T23:31:48;1.83;;;1.73;;
73251;SDS011;61473;50.834;4.552;2022-10-04T23:34:26;3.08;;;1.88;;
73251;SDS011;61473;50.834;4.552;2022-10-04T23:36:55;2.42;;;1.77;;
73251;SDS011;61473;50.834;4.552;2022-10-04T23:39:22;3.40;;;1.85;;
73251;SDS011;61473;50.834;4.552;2022-10-04T23:41:52;2.88;;;1.88;;
73251;SDS011;61473;50.834;4.552;2022-10-04T23:44:20;2.78;;;2.05;;
73251;SDS011;61473;50.834;4.552;2022-10-04T23:46:48;3.33;;;1.60;;
73251;SDS011;61473;50.834;4.552;2022-10-04T23:49:17;2.53;;;1.95;;
73251;SDS011;61473;50.834;4.552;2022-10-04T23:51:44;2.42;;;2.22;;
73251;SDS011;61473;50.834;4.552;2022-10-04T23:54:15;3.00;;;1.70;;
73251;SDS011;61473;50.834;4.552;2022-10-04T23:56:44;2.50;;;2.10;;
73251;SDS011;61473;50.834;4.552;2022-10-04T23:59:14;2.15;;;2.00;;
